sensor_id;sensor_type;location;lat;lon;timestamp;pressure;altitude;pressure_sealevel;temperature;humidity
26487;BME280;14425;56.136;40.360;2023-02-10T00:02:22;100698.38;;;-2.15;100.00
26487;BME280;14425;56.136;40.360;2023-02-10T00:04:48;100693.59;;;-1.87;100.00
26487;BME280;14425;56.136;40.360;2023-02-10T00:07:14;100688.03;;;-2.09;100.00
26487;BME280;14425;56.136;40.360;2023-02-10T00:09:39;100679.09;;;-1.63;100.00
26487;BME280;14425;56.136;40.360;2023-02-10T00:12:05;100692.00;;;-1.78;100.00
26487;BME280;14425;56.136;40.360;2023-02-10T00:14:32;100682.81;;;-2.11;100.00
26487;BME280;14425;56.136;40.360;2023-02-10T00:16:58;100679.81;;;-2.15;100.00
26487;BME280;14425;56.136;40.360;2023-02-10T00:19:26;100676.75;;;-2.04;100.00
26487;BME280;14425;56.136;40.360;2023-02-10T00:21:52;100677.28;;;-2.15;100.00
26487;BME280;14425;56.136;40.360;2023-02-10T00:24:18;100673.94;;;-1.98;100.00
26487;BME280;14425;56.136;40.360;2023-02-10T00:26:44;100668.88;;;-1.98;100.00
26487;BME280;14425;56.136;40.360;2023-02-10T00:29:09;100669.03;;;-1.97;100.00
26487;BME280;14425;56.136;40.360;2023-02-10T00:31:35;100656.44;;;-1.79;100.00
26487;BME280;14425;56.136;40.360;2023-02-10T00:34:00;100653.31;;;-1.77;100.00
26487;BME280;14425;56.136;40.360;2023-02-10T00:36:25;100654.09;;;-2.36;100.00
26487;BME280;14425;56.136;40.360;2023-02-10T00:38:51;100657.13;;;-2.31;100.00
26487;BME280;14425;56.136;40.360;2023-02-10T00:41:20;100646.94;;;-1.73;100.00
26487;BME280;14425;56.136;40.360;2023-02-10T00:43:45;100635.88;;;-1.91;100.00
26487;BME280;14425;56.136;40.360;2023-02-10T00:46:12;100644.09;;;-2.18;100.00
26487;BME280;14425;56.136;40.360;2023-02-10T00:48:38;100631.09;;;-2.06;100.00
26487;BME280;14425;56.136;40.360;2023-02-10T00:51:04;100639.41;;;-1.98;100.00
26487;BME280;14425;56.136;40.360;2023-02-10T00:53:30;100618.47;;;-1.97;100.00
26487;BME280;14425;56.136;40.360;2023-02-10T00:55:55;100612.28;;;-1.74;100.00
26487;BME280;14425;56.136;40.360;2023-02-10T00:58:21;100618.63;;;-1.95;100.00
26487;BME280;14425;56.136;40.360;2023-02-10T01:00:47;100606.50;;;-1.56;100.00
26487;BME280;14425;56.136;40.360;2023-02-10T01:03:13;100594.94;;;-2.05;100.00
26487;BME280;14425;56.136;40.360;2023-02-10T01:05:38;100591.88;;;-2.27;100.00
26487;BME280;14425;56.136;40.360;2023-02-10T01:08:04;100585.66;;;-1.71;100.00
26487;BME280;14425;56.136;40.360;2023-02-10T01:10:32;100583.28;;;-1.69;100.00
26487;BME280;14425;56.136;40.360;2023-02-10T01:13:00;100578.53;;;-1.57;100.00
26487;BME280;14425;56.136;40.360;2023-02-10T01:15:26;100582.06;;;-2.32;100.00
26487;BME280;14425;56.136;40.360;2023-02-10T01:17:52;100580.91;;;-2.18;100.00
26487;BME280;14425;56.136;40.360;2023-02-10T01:20:18;100574.38;;;-1.39;100.00
26487;BME280;14425;56.136;40.360;2023-02-10T01:22:43;100559.50;;;-1.27;100.00
26487;BME280;14425;56.136;40.360;2023-02-10T01:25:08;100561.28;;;-1.53;100.00
26487;BME280;14425;56.136;40.360;2023-02-10T01:27:34;100555.75;;;-1.40;100.00
26487;BME280;14425;56.136;40.360;2023-02-10T01:29:59;100551.00;;;-1.28;100.00
26487;BME280;14425;56.136;40.360;2023-02-10T01:32:25;100554.41;;;-1.19;100.00
26487;BME280;14425;56.136;40.360;2023-02-10T01:34:50;100544.72;;;-1.58;100.00
26487;BME280;14425;56.136;40.360;2023-02-10T01:37:16;100546.63;;;-1.99;100.00
26487;BME280;14425;56.136;40.360;2023-02-10T01:39:41;100538.94;;;-1.74;100.00
26487;BME280;14425;56.136;40.360;2023-02-10T01:42:11;100555.00;;;-1.65;100.00
26487;BME280;14425;56.136;40.360;2023-02-10T01:47:07;100531.50;;;-1.64;100.00
26487;BME280;14425;56.136;40.360;2023-02-10T01:49:40;100534.47;;;-1.68;100.00
26487;BME280;14425;56.136;40.360;2023-02-10T01:52:20;100531.78;;;-1.78;100.00
26487;BME280;14425;56.136;40.360;2023-02-10T01:55:00;100538.53;;;-2.21;100.00
26487;BME280;14425;56.136;40.360;2023-02-10T01:57:29;100527.91;;;-2.43;100.00
26487;BME280;14425;56.136;40.360;2023-02-10T01:59:55;100532.09;;;-1.75;100.00
26487;BME280;14425;56.136;40.360;2023-02-10T02:02:21;100524.28;;;-2.20;100.00
26487;BME280;14425;56.136;40.360;2023-02-10T02:04:50;100523.91;;;-2.41;100.00
26487;BME280;14425;56.136;40.360;2023-02-10T02:07:17;100529.88;;;-1.72;100.00
26487;BME280;14425;56.136;40.360;2023-02-10T02:09:44;100505.19;;;-1.66;100.00
26487;BME280;14425;56.136;40.360;2023-02-10T02:15:20;100507.38;;;-1.95;100.00
26487;BME280;14425;56.136;40.360;2023-02-10T02:17:54;100491.59;;;-2.10;100.00
26487;BME280;14425;56.136;40.360;2023-02-10T02:34:06;100466.63;;;-1.90;100.00
26487;BME280;14425;56.136;40.360;2023-02-10T02:37:40;100455.63;;;-1.55;100.00
26487;BME280;14425;56.136;40.360;2023-02-10T02:39:34;100459.44;;;-1.41;100.00
26487;BME280;14425;56.136;40.360;2023-02-10T02:44:34;100466.94;;;-1.95;100.00
26487;BME280;14425;56.136;40.360;2023-02-10T02:47:27;100451.94;;;-2.62;100.00
26487;BME280;14425;56.136;40.360;2023-02-10T02:49:59;100466.59;;;-2.25;100.00
26487;BME280;14425;56.136;40.360;2023-02-10T02:57:55;100437.50;;;-2.12;100.00
26487;BME280;14425;56.136;40.360;2023-02-10T03:00:30;100423.94;;;-1.87;100.00
26487;BME280;14425;56.136;40.360;2023-02-10T03:02:58;100419.78;;;-1.77;100.00
26487;BME280;14425;56.136;40.360;2023-02-10T03:05:29;100433.44;;;-2.28;100.00
26487;BME280;14425;56.136;40.360;2023-02-10T03:07:56;100416.38;;;-1.87;100.00
26487;BME280;14425;56.136;40.360;2023-02-10T03:10:21;100418.75;;;-1.97;100.00
26487;BME280;14425;56.136;40.360;2023-02-10T03:12:47;100422.91;;;-2.24;100.00
26487;BME280;14425;56.136;40.360;2023-02-10T03:15:13;100421.00;;;-1.82;100.00
26487;BME280;14425;56.136;40.360;2023-02-10T03:17:39;100428.25;;;-2.03;100.00
26487;BME280;14425;56.136;40.360;2023-02-10T03:20:06;100410.41;;;-2.31;100.00
26487;BME280;14425;56.136;40.360;2023-02-10T03:22:32;100413.66;;;-2.14;100.00
26487;BME280;14425;56.136;40.360;2023-02-10T03:24:57;100406.81;;;-1.54;100.00
26487;BME280;14425;56.136;40.360;2023-02-10T03:27:22;100417.25;;;-1.95;100.00
26487;BME280;14425;56.136;40.360;2023-02-10T03:29:48;100410.31;;;-1.35;100.00
26487;BME280;14425;56.136;40.360;2023-02-10T03:32:18;100412.91;;;-1.70;100.00
26487;BME280;14425;56.136;40.360;2023-02-10T03:34:43;100421.41;;;-1.69;100.00
26487;BME280;14425;56.136;40.360;2023-02-10T03:37:09;100404.03;;;-2.18;100.00
26487;BME280;14425;56.136;40.360;2023-02-10T03:39:34;100394.50;;;-2.03;100.00
26487;BME280;14425;56.136;40.360;2023-02-10T03:42:00;100390.94;;;-2.14;100.00
26487;BME280;14425;56.136;40.360;2023-02-10T03:44:25;100385.56;;;-2.35;100.00
26487;BME280;14425;56.136;40.360;2023-02-10T03:46:51;100384.97;;;-1.80;100.00
26487;BME280;14425;56.136;40.360;2023-02-10T03:49:16;100381.72;;;-1.79;100.00
26487;BME280;14425;56.136;40.360;2023-02-10T03:51:42;100388.44;;;-2.06;100.00
26487;BME280;14425;56.136;40.360;2023-02-10T03:54:07;100382.59;;;-2.05;100.00
26487;BME280;14425;56.136;40.360;2023-02-10T03:56:33;100369.38;;;-1.76;100.00
26487;BME280;14425;56.136;40.360;2023-02-10T03:59:03;100391.38;;;-2.01;100.00
26487;BME280;14425;56.136;40.360;2023-02-10T04:01:29;100370.84;;;-2.13;100.00
26487;BME280;14425;56.136;40.360;2023-02-10T04:03:54;100361.97;;;-2.09;100.00
26487;BME280;14425;56.136;40.360;2023-02-10T04:06:20;100363.03;;;-1.53;100.00
26487;BME280;14425;56.136;40.360;2023-02-10T04:08:47;100362.59;;;-1.49;99.68
26487;BME280;14425;56.136;40.360;2023-02-10T04:11:12;100354.75;;;-1.70;100.00
26487;BME280;14425;56.136;40.360;2023-02-10T04:13:39;100337.81;;;-1.71;100.00
26487;BME280;14425;56.136;40.360;2023-02-10T04:16:10;100342.53;;;-1.65;100.00
26487;BME280;14425;56.136;40.360;2023-02-10T04:18:36;100325.09;;;-1.44;99.00
26487;BME280;14425;56.136;40.360;2023-02-10T04:21:05;100345.28;;;-2.16;100.00
26487;BME280;14425;56.136;40.360;2023-02-10T04:23:31;100328.63;;;-2.23;100.00
26487;BME280;14425;56.136;40.360;2023-02-10T04:25:57;100320.03;;;-2.07;100.00
26487;BME280;14425;56.136;40.360;2023-02-10T04:28:22;100306.22;;;-2.37;100.00
26487;BME280;14425;56.136;40.360;2023-02-10T04:30:54;100313.78;;;-2.19;100.00
26487;BME280;14425;56.136;40.360;2023-02-10T04:33:20;100305.19;;;-2.39;100.00
26487;BME280;14425;56.136;40.360;2023-02-10T04:35:49;100304.59;;;-2.45;100.00
26487;BME280;14425;56.136;40.360;2023-02-10T04:38:15;100294.91;;;-2.23;100.00
26487;BME280;14425;56.136;40.360;2023-02-10T04:40:41;100301.53;;;-1.80;100.00
26487;BME280;14425;56.136;40.360;2023-02-10T04:43:09;100295.28;;;-1.83;100.00
26487;BME280;14425;56.136;40.360;2023-02-10T04:45:34;100305.00;;;-2.06;100.00
26487;BME280;14425;56.136;40.360;2023-02-10T04:48:00;100288.19;;;-2.05;100.00
26487;BME280;14425;56.136;40.360;2023-02-10T04:50:26;100282.31;;;-1.33;96.80
26487;BME280;14425;56.136;40.360;2023-02-10T04:52:51;100292.16;;;-1.72;94.83
26487;BME280;14425;56.136;40.360;2023-02-10T04:55:16;100287.53;;;-1.76;96.93
26487;BME280;14425;56.136;40.360;2023-02-10T04:57:42;100285.50;;;-1.44;92.38
26487;BME280;14425;56.136;40.360;2023-02-10T05:00:08;100272.41;;;-1.49;91.41
26487;BME280;14425;56.136;40.360;2023-02-10T05:02:33;100289.13;;;-1.68;93.32
26487;BME280;14425;56.136;40.360;2023-02-10T05:04:59;100304.19;;;-1.78;94.01
26487;BME280;14425;56.136;40.360;2023-02-10T05:07:25;100267.41;;;-2.37;95.56
26487;BME280;14425;56.136;40.360;2023-02-10T05:09:50;100271.28;;;-2.24;97.44
26487;BME280;14425;56.136;40.360;2023-02-10T05:12:15;100278.13;;;-2.14;98.23
26487;BME280;14425;56.136;40.360;2023-02-10T05:14:41;100256.91;;;-2.42;97.56
26487;BME280;14425;56.136;40.360;2023-02-10T05:17:06;100261.00;;;-2.16;97.41
26487;BME280;14425;56.136;40.360;2023-02-10T05:19:32;100244.22;;;-2.25;98.71
26487;BME280;14425;56.136;40.360;2023-02-10T05:21:58;100239.56;;;-1.57;95.32
26487;BME280;14425;56.136;40.360;2023-02-10T05:24:23;100233.84;;;-1.74;92.69
26487;BME280;14425;56.136;40.360;2023-02-10T05:26:49;100244.34;;;-2.14;93.34
26487;BME280;14425;56.136;40.360;2023-02-10T05:29:14;100249.56;;;-2.21;97.01
26487;BME280;14425;56.136;40.360;2023-02-10T05:31:40;100249.63;;;-1.85;95.47
26487;BME280;14425;56.136;40.360;2023-02-10T05:34:05;100243.50;;;-2.41;98.20
26487;BME280;14425;56.136;40.360;2023-02-10T05:36:31;100243.06;;;-2.54;100.00
26487;BME280;14425;56.136;40.360;2023-02-10T05:38:56;100227.50;;;-1.96;100.00
26487;BME280;14425;56.136;40.360;2023-02-10T05:41:40;100239.56;;;-1.94;96.20
26487;BME280;14425;56.136;40.360;2023-02-10T05:44:05;100242.16;;;-2.29;100.00
26487;BME280;14425;56.136;40.360;2023-02-10T05:46:31;100233.53;;;-2.22;99.36
26487;BME280;14425;56.136;40.360;2023-02-10T05:48:56;100218.75;;;-1.63;96.52
26487;BME280;14425;56.136;40.360;2023-02-10T05:51:22;100233.78;;;-1.65;96.97
26487;BME280;14425;56.136;40.360;2023-02-10T05:53:47;100224.59;;;-1.73;97.30
26487;BME280;14425;56.136;40.360;2023-02-10T05:56:13;100227.06;;;-2.01;97.29
26487;BME280;14425;56.136;40.360;2023-02-10T05:58:38;100231.50;;;-1.81;97.70
26487;BME280;14425;56.136;40.360;2023-02-10T06:01:08;100230.56;;;-2.27;100.00
26487;BME280;14425;56.136;40.360;2023-02-10T06:03:34;100230.53;;;-2.18;100.00
26487;BME280;14425;56.136;40.360;2023-02-10T06:05:59;100215.94;;;-2.03;100.00
26487;BME280;14425;56.136;40.360;2023-02-10T06:08:25;100197.66;;;-1.73;99.33
26487;BME280;14425;56.136;40.360;2023-02-10T06:10:52;100187.28;;;-1.76;98.59
26487;BME280;14425;56.136;40.360;2023-02-10T06:13:17;100188.38;;;-1.82;98.46
26487;BME280;14425;56.136;40.360;2023-02-10T06:15:43;100193.03;;;-1.96;99.82
26487;BME280;14425;56.136;40.360;2023-02-10T06:18:08;100210.38;;;-2.35;100.00
26487;BME280;14425;56.136;40.360;2023-02-10T06:20:34;100199.25;;;-1.92;99.76
26487;BME280;14425;56.136;40.360;2023-02-10T06:23:00;100191.97;;;-1.98;99.91
26487;BME280;14425;56.136;40.360;2023-02-10T06:25:25;100190.59;;;-2.39;100.00
26487;BME280;14425;56.136;40.360;2023-02-10T06:27:51;100184.44;;;-2.07;100.00
26487;BME280;14425;56.136;40.360;2023-02-10T06:30:16;100177.91;;;-2.13;100.00
26487;BME280;14425;56.136;40.360;2023-02-10T06:32:42;100196.56;;;-2.39;100.00
26487;BME280;14425;56.136;40.360;2023-02-10T06:35:07;100172.28;;;-2.19;100.00
26487;BME280;14425;56.136;40.360;2023-02-10T06:37:33;100176.88;;;-2.15;100.00
26487;BME280;14425;56.136;40.360;2023-02-10T06:39:58;100168.53;;;-1.78;100.00
26487;BME280;14425;56.136;40.360;2023-02-10T06:42:24;100186.38;;;-2.04;100.00
26487;BME280;14425;56.136;40.360;2023-02-10T06:44:49;100168.88;;;-1.83;100.00
26487;BME280;14425;56.136;40.360;2023-02-10T06:47:15;100185.31;;;-1.97;99.94
26487;BME280;14425;56.136;40.360;2023-02-10T06:49:40;100193.69;;;-2.25;98.67
26487;BME280;14425;56.136;40.360;2023-02-10T06:52:06;100174.38;;;-2.33;100.00
26487;BME280;14425;56.136;40.360;2023-02-10T06:54:31;100164.88;;;-1.90;96.47
26487;BME280;14425;56.136;40.360;2023-02-10T06:56:57;100161.00;;;-2.23;98.16
26487;BME280;14425;56.136;40.360;2023-02-10T06:59:22;100188.53;;;-2.44;99.16
26487;BME280;14425;56.136;40.360;2023-02-10T07:01:48;100142.88;;;-2.28;97.66
26487;BME280;14425;56.136;40.360;2023-02-10T07:04:14;100175.53;;;-2.12;95.56
26487;BME280;14425;56.136;40.360;2023-02-10T07:06:40;100152.28;;;-1.99;94.87
26487;BME280;14425;56.136;40.360;2023-02-10T07:09:06;100190.97;;;-2.09;94.13
26487;BME280;14425;56.136;40.360;2023-02-10T07:11:32;100168.50;;;-1.97;92.78
26487;BME280;14425;56.136;40.360;2023-02-10T07:13:58;100150.19;;;-1.67;92.43
26487;BME280;14425;56.136;40.360;2023-02-10T07:16:23;100139.56;;;-2.18;95.92
26487;BME280;14425;56.136;40.360;2023-02-10T07:18:49;100147.03;;;-1.36;92.76
26487;BME280;14425;56.136;40.360;2023-02-10T07:21:14;100136.84;;;-1.08;90.65
26487;BME280;14425;56.136;40.360;2023-02-10T07:23:40;100140.94;;;-1.00;87.01
26487;BME280;14425;56.136;40.360;2023-02-10T07:26:06;100129.16;;;-1.57;88.43
26487;BME280;14425;56.136;40.360;2023-02-10T07:28:33;100124.22;;;-1.74;91.94
26487;BME280;14425;56.136;40.360;2023-02-10T07:30:59;100146.56;;;-1.79;91.13
26487;BME280;14425;56.136;40.360;2023-02-10T07:33:24;100149.91;;;-1.42;90.92
26487;BME280;14425;56.136;40.360;2023-02-10T07:35:50;100130.41;;;-0.57;85.64
26487;BME280;14425;56.136;40.360;2023-02-10T07:38:15;100126.56;;;-1.67;88.16
26487;BME280;14425;56.136;40.360;2023-02-10T07:40:40;100130.59;;;-1.69;90.87
26487;BME280;14425;56.136;40.360;2023-02-10T07:43:06;100141.28;;;-1.44;91.20
26487;BME280;14425;56.136;40.360;2023-02-10T07:45:31;100127.94;;;-1.52;90.37
26487;BME280;14425;56.136;40.360;2023-02-10T07:47:58;100111.81;;;-1.90;93.27
26487;BME280;14425;56.136;40.360;2023-02-10T07:50:24;100133.88;;;-2.07;90.48
26487;BME280;14425;56.136;40.360;2023-02-10T07:52:50;100112.03;;;-1.78;88.46
26487;BME280;14425;56.136;40.360;2023-02-10T07:55:15;100106.16;;;-1.96;89.83
26487;BME280;14425;56.136;40.360;2023-02-10T07:57:41;100093.47;;;-1.22;87.48
26487;BME280;14425;56.136;40.360;2023-02-10T08:00:09;100080.44;;;-1.45;88.83
26487;BME280;14425;56.136;40.360;2023-02-10T08:02:37;100084.50;;;-1.18;85.95
26487;BME280;14425;56.136;40.360;2023-02-10T08:05:02;100088.97;;;-1.16;83.67
26487;BME280;14425;56.136;40.360;2023-02-10T08:07:28;100083.28;;;-1.70;84.06
26487;BME280;14425;56.136;40.360;2023-02-10T08:09:54;100072.63;;;-1.19;82.22
26487;BME280;14425;56.136;40.360;2023-02-10T08:12:19;100061.28;;;-1.14;80.97
26487;BME280;14425;56.136;40.360;2023-02-10T08:14:45;100063.47;;;-1.27;79.12
26487;BME280;14425;56.136;40.360;2023-02-10T08:17:11;100074.25;;;-0.71;77.57
26487;BME280;14425;56.136;40.360;2023-02-10T08:19:37;100049.81;;;-1.00;77.43
26487;BME280;14425;56.136;40.360;2023-02-10T08:22:03;100051.28;;;-1.32;79.52
26487;BME280;14425;56.136;40.360;2023-02-10T08:24:30;100068.31;;;-1.20;77.26
26487;BME280;14425;56.136;40.360;2023-02-10T08:26:55;100054.41;;;-0.57;74.94
26487;BME280;14425;56.136;40.360;2023-02-10T08:29:21;100023.72;;;-1.09;75.14
26487;BME280;14425;56.136;40.360;2023-02-10T08:31:51;100032.66;;;-1.13;76.00
26487;BME280;14425;56.136;40.360;2023-02-10T08:34:19;99994.88;;;-1.01;77.36
26487;BME280;14425;56.136;40.360;2023-02-10T08:36:45;100000.84;;;-0.61;75.02
26487;BME280;14425;56.136;40.360;2023-02-10T08:39:13;100014.97;;;-0.03;69.35
26487;BME280;14425;56.136;40.360;2023-02-10T08:41:39;100040.59;;;0.21;66.83
26487;BME280;14425;56.136;40.360;2023-02-10T08:44:06;99995.41;;;0.90;65.07
26487;BME280;14425;56.136;40.360;2023-02-10T08:46:31;100001.78;;;0.01;66.14
26487;BME280;14425;56.136;40.360;2023-02-10T08:48:57;100019.13;;;-0.04;69.36
26487;BME280;14425;56.136;40.360;2023-02-10T08:51:26;100017.59;;;0.92;64.93
26487;BME280;14425;56.136;40.360;2023-02-10T08:53:52;99986.19;;;0.17;68.27
26487;BME280;14425;56.136;40.360;2023-02-10T08:56:18;99993.28;;;0.11;68.49
26487;BME280;14425;56.136;40.360;2023-02-10T08:58:45;99966.19;;;1.61;63.92
26487;BME280;14425;56.136;40.360;2023-02-10T09:01:13;99956.94;;;2.31;61.64
26487;BME280;14425;56.136;40.360;2023-02-10T09:03:40;99931.25;;;2.28;62.47
26487;BME280;14425;56.136;40.360;2023-02-10T09:06:05;99947.19;;;2.73;57.20
26487;BME280;14425;56.136;40.360;2023-02-10T09:08:36;99927.97;;;4.69;56.07
26487;BME280;14425;56.136;40.360;2023-02-10T09:11:05;99928.97;;;2.92;54.92
26487;BME280;14425;56.136;40.360;2023-02-10T09:13:31;99916.47;;;3.57;55.32
26487;BME280;14425;56.136;40.360;2023-02-10T09:15:56;99888.19;;;3.04;55.05
26487;BME280;14425;56.136;40.360;2023-02-10T09:18:21;99871.84;;;3.13;52.49
26487;BME280;14425;56.136;40.360;2023-02-10T09:20:47;99867.63;;;3.64;53.16
26487;BME280;14425;56.136;40.360;2023-02-10T09:23:12;99865.44;;;4.91;52.53
26487;BME280;14425;56.136;40.360;2023-02-10T09:25:38;99889.25;;;4.63;52.11
26487;BME280;14425;56.136;40.360;2023-02-10T09:28:03;99877.72;;;3.24;51.32
26487;BME280;14425;56.136;40.360;2023-02-10T09:30:29;99874.13;;;3.73;54.10
26487;BME280;14425;56.136;40.360;2023-02-10T09:32:54;99869.88;;;5.22;51.43
26487;BME280;14425;56.136;40.360;2023-02-10T09:35:20;99865.38;;;5.04;48.40
26487;BME280;14425;56.136;40.360;2023-02-10T09:37:46;99863.81;;;4.65;49.51
26487;BME280;14425;56.136;40.360;2023-02-10T09:40:17;99870.34;;;3.04;51.25
26487;BME280;14425;56.136;40.360;2023-02-10T09:43:11;99843.66;;;2.13;54.67
26487;BME280;14425;56.136;40.360;2023-02-10T09:45:39;99860.06;;;1.59;56.17
26487;BME280;14425;56.136;40.360;2023-02-10T09:54:25;99837.22;;;3.04;53.17
26487;BME280;14425;56.136;40.360;2023-02-10T09:56:57;99848.19;;;2.77;52.87
26487;BME280;14425;56.136;40.360;2023-02-10T09:59:23;99842.50;;;2.09;54.33
26487;BME280;14425;56.136;40.360;2023-02-10T10:02:13;99837.94;;;2.40;55.05
26487;BME280;14425;56.136;40.360;2023-02-10T10:04:40;99832.34;;;3.07;54.61
26487;BME280;14425;56.136;40.360;2023-02-10T10:07:30;99831.44;;;2.81;54.51
26487;BME280;14425;56.136;40.360;2023-02-10T10:10:12;99825.66;;;2.47;54.76
26487;BME280;14425;56.136;40.360;2023-02-10T10:12:39;99829.00;;;2.34;53.24
26487;BME280;14425;56.136;40.360;2023-02-10T10:15:14;99847.38;;;3.16;51.68
26487;BME280;14425;56.136;40.360;2023-02-10T10:26:15;99823.25;;;1.54;56.47
26487;BME280;14425;56.136;40.360;2023-02-10T10:32:15;99806.63;;;1.35;56.78
26487;BME280;14425;56.136;40.360;2023-02-10T10:34:45;99791.63;;;2.70;55.87
26487;BME280;14425;56.136;40.360;2023-02-10T10:37:23;99790.31;;;2.14;54.48
26487;BME280;14425;56.136;40.360;2023-02-10T10:39:52;99773.91;;;2.34;55.38
26487;BME280;14425;56.136;40.360;2023-02-10T10:42:49;99755.59;;;2.03;55.90
26487;BME280;14425;56.136;40.360;2023-02-10T10:48:05;99796.44;;;1.23;56.38
26487;BME280;14425;56.136;40.360;2023-02-10T10:50:33;99799.94;;;0.35;60.33
26487;BME280;14425;56.136;40.360;2023-02-10T10:53:02;99756.91;;;1.39;61.43
26487;BME280;14425;56.136;40.360;2023-02-10T10:55:49;99746.22;;;2.39;55.48
26487;BME280;14425;56.136;40.360;2023-02-10T10:58:35;99747.78;;;2.37;56.01
26487;BME280;14425;56.136;40.360;2023-02-10T11:01:02;99733.63;;;3.43;52.07
26487;BME280;14425;56.136;40.360;2023-02-10T11:03:29;99729.88;;;2.86;51.90
26487;BME280;14425;56.136;40.360;2023-02-10T11:06:07;99741.38;;;2.92;53.38
26487;BME280;14425;56.136;40.360;2023-02-10T11:09:00;99709.06;;;3.05;51.76
26487;BME280;14425;56.136;40.360;2023-02-10T11:11:39;99707.03;;;2.37;53.99
26487;BME280;14425;56.136;40.360;2023-02-10T11:14:38;99710.22;;;2.71;54.96
26487;BME280;14425;56.136;40.360;2023-02-10T11:17:21;99702.59;;;2.46;53.73
26487;BME280;14425;56.136;40.360;2023-02-10T11:19:55;99692.41;;;1.37;55.55
26487;BME280;14425;56.136;40.360;2023-02-10T11:22:21;99700.19;;;0.92;57.70
26487;BME280;14425;56.136;40.360;2023-02-10T11:24:52;99671.81;;;1.69;57.31
26487;BME280;14425;56.136;40.360;2023-02-10T11:27:19;99685.53;;;1.71;55.81
26487;BME280;14425;56.136;40.360;2023-02-10T11:29:53;99666.22;;;2.99;53.29
26487;BME280;14425;56.136;40.360;2023-02-10T11:32:26;99666.84;;;2.70;53.98
26487;BME280;14425;56.136;40.360;2023-02-10T11:34:55;99654.47;;;3.14;53.07
26487;BME280;14425;56.136;40.360;2023-02-10T11:37:34;99651.16;;;2.13;53.90
26487;BME280;14425;56.136;40.360;2023-02-10T11:40:04;99657.72;;;2.35;53.38
26487;BME280;14425;56.136;40.360;2023-02-10T11:42:32;99655.00;;;1.83;55.35
26487;BME280;14425;56.136;40.360;2023-02-10T11:47:44;99640.53;;;2.96;52.91
26487;BME280;14425;56.136;40.360;2023-02-10T11:50:26;99651.66;;;1.84;55.69
26487;BME280;14425;56.136;40.360;2023-02-10T11:52:52;99661.66;;;0.86;57.22
26487;BME280;14425;56.136;40.360;2023-02-10T11:55:18;99640.78;;;0.79;59.12
26487;BME280;14425;56.136;40.360;2023-02-10T12:01:01;99647.19;;;1.44;57.78
26487;BME280;14425;56.136;40.360;2023-02-10T12:04:14;99624.28;;;2.81;54.51
26487;BME280;14425;56.136;40.360;2023-02-10T12:06:23;99621.00;;;2.31;54.68
26487;BME280;14425;56.136;40.360;2023-02-10T12:08:54;99611.16;;;2.49;54.17
26487;BME280;14425;56.136;40.360;2023-02-10T12:17:20;99639.72;;;-0.03;62.05
26487;BME280;14425;56.136;40.360;2023-02-10T12:23:39;99615.19;;;-0.69;66.68
26487;BME280;14425;56.136;40.360;2023-02-10T12:30:54;99606.41;;;-0.62;67.87
26487;BME280;14425;56.136;40.360;2023-02-10T12:39:13;99580.00;;;0.01;69.36
26487;BME280;14425;56.136;40.360;2023-02-10T12:53:19;99574.78;;;-0.67;72.83
26487;BME280;14425;56.136;40.360;2023-02-10T12:56:05;99569.22;;;-0.73;72.88
26487;BME280;14425;56.136;40.360;2023-02-10T12:58:37;99557.56;;;-0.71;73.38
26487;BME280;14425;56.136;40.360;2023-02-10T13:01:26;99557.25;;;-0.86;74.38
26487;BME280;14425;56.136;40.360;2023-02-10T13:04:05;99564.41;;;-0.38;71.58
26487;BME280;14425;56.136;40.360;2023-02-10T13:06:40;99579.03;;;0.68;66.47
26487;BME280;14425;56.136;40.360;2023-02-10T13:09:15;99552.19;;;1.31;64.30
26487;BME280;14425;56.136;40.360;2023-02-10T13:11:48;99554.09;;;0.98;63.41
26487;BME280;14425;56.136;40.360;2023-02-10T13:14:23;99549.59;;;1.54;62.21
26487;BME280;14425;56.136;40.360;2023-02-10T13:16:55;99537.91;;;0.72;62.95
26487;BME280;14425;56.136;40.360;2023-02-10T13:22:00;99535.41;;;0.26;65.69
26487;BME280;14425;56.136;40.360;2023-02-10T13:27:24;99538.03;;;-0.18;66.90
26487;BME280;14425;56.136;40.360;2023-02-10T13:35:23;99530.88;;;-0.78;71.90
26487;BME280;14425;56.136;40.360;2023-02-10T13:37:58;99528.00;;;-0.83;71.21
26487;BME280;14425;56.136;40.360;2023-02-10T13:42:53;99516.03;;;0.05;68.59
26487;BME280;14425;56.136;40.360;2023-02-10T13:45:23;99522.50;;;-0.11;67.14
26487;BME280;14425;56.136;40.360;2023-02-10T13:47:53;99490.56;;;-0.43;68.97
26487;BME280;14425;56.136;40.360;2023-02-10T13:53:04;99493.88;;;-0.32;69.40
26487;BME280;14425;56.136;40.360;2023-02-10T13:58:17;99500.97;;;-0.28;69.79
26487;BME280;14425;56.136;40.360;2023-02-10T14:00:47;99510.16;;;-0.40;69.64
26487;BME280;14425;56.136;40.360;2023-02-10T14:03:21;99502.97;;;-0.46;69.43
26487;BME280;14425;56.136;40.360;2023-02-10T14:06:00;99493.97;;;-0.64;69.99
26487;BME280;14425;56.136;40.360;2023-02-10T14:08:34;99497.78;;;-0.91;72.69
26487;BME280;14425;56.136;40.360;2023-02-10T14:11:25;99497.22;;;-0.77;74.10
26487;BME280;14425;56.136;40.360;2023-02-10T14:14:01;99497.63;;;-0.83;72.52
26487;BME280;14425;56.136;40.360;2023-02-10T14:16:30;99480.25;;;-1.33;75.12
26487;BME280;14425;56.136;40.360;2023-02-10T14:19:06;99489.41;;;-1.13;77.12
26487;BME280;14425;56.136;40.360;2023-02-10T14:21:43;99484.47;;;-1.11;75.28
26487;BME280;14425;56.136;40.360;2023-02-10T14:24:16;99504.91;;;-1.08;75.63
26487;BME280;14425;56.136;40.360;2023-02-10T14:26:44;99475.63;;;-1.16;75.89
26487;BME280;14425;56.136;40.360;2023-02-10T14:29:15;99484.22;;;-1.57;79.54
26487;BME280;14425;56.136;40.360;2023-02-10T14:31:42;99485.34;;;-1.10;77.25
26487;BME280;14425;56.136;40.360;2023-02-10T14:34:19;99495.53;;;-1.41;77.91
26487;BME280;14425;56.136;40.360;2023-02-10T14:37:25;99488.00;;;-0.87;75.35